sensor_id;sensor_type;location;lat;lon;timestamp;P1;durP1;ratioP1;P2;durP2;ratioP2
16669;SDS011;8448;52.034;5.158;2023-04-24T00:02:02;2.87;;;2.20;;
16669;SDS011;8448;52.034;5.158;2023-04-24T00:04:30;2.77;;;2.10;;
16669;SDS011;8448;52.034;5.158;2023-04-24T00:06:57;4.20;;;2.43;;
16669;SDS011;8448;52.034;5.158;2023-04-24T00:09:25;4.00;;;2.53;;
16669;SDS011;8448;52.034;5.158;2023-04-24T00:11:54;4.70;;;2.80;;
16669;SDS011;8448;52.034;5.158;2023-04-24T00:14:21;3.80;;;3.10;;
16669;SDS011;8448;52.034;5.158;2023-04-24T00:16:49;4.30;;;3.43;;
16669;SDS011;8448;52.034;5.158;2023-04-24T00:19:16;5.17;;;3.80;;
16669;SDS011;8448;52.034;5.158;2023-04-24T00:21:46;4.20;;;3.63;;
16669;SDS011;8448;52.034;5.158;2023-04-24T00:24:15;6.20;;;4.03;;
16669;SDS011;8448;52.034;5.158;2023-04-24T00:26:42;5.13;;;3.97;;
16669;SDS011;8448;52.034;5.158;2023-04-24T00:29:11;6.23;;;3.53;;
16669;SDS011;8448;52.034;5.158;2023-04-24T00:31:38;6.43;;;4.18;;
16669;SDS011;8448;52.034;5.158;2023-04-24T00:34:05;5.47;;;3.27;;
16669;SDS011;8448;52.034;5.158;2023-04-24T00:36:33;5.93;;;3.70;;
16669;SDS011;8448;52.034;5.158;2023-04-24T00:39:00;4.30;;;3.40;;
16669;SDS011;8448;52.034;5.158;2023-04-24T00:41:28;5.87;;;3.57;;
16669;SDS011;8448;52.034;5.158;2023-04-24T00:43:55;4.47;;;3.70;;
16669;SDS011;8448;52.034;5.158;2023-04-24T00:46:24;6.17;;;3.73;;
16669;SDS011;8448;52.034;5.158;2023-04-24T00:48:51;6.00;;;3.90;;
16669;SDS011;8448;52.034;5.158;2023-04-24T00:51:19;5.40;;;3.90;;
16669;SDS011;8448;52.034;5.158;2023-04-24T00:53:46;5.77;;;4.27;;
16669;SDS011;8448;52.034;5.158;2023-04-24T00:56:13;7.97;;;4.60;;
16669;SDS011;8448;52.034;5.158;2023-04-24T00:58:41;9.93;;;5.20;;
16669;SDS011;8448;52.034;5.158;2023-04-24T01:01:09;7.47;;;5.40;;
16669;SDS011;8448;52.034;5.158;2023-04-24T01:03:38;8.97;;;5.30;;
16669;SDS011;8448;52.034;5.158;2023-04-24T01:06:05;8.47;;;5.70;;
16669;SDS011;8448;52.034;5.158;2023-04-24T01:08:34;9.10;;;5.70;;
16669;SDS011;8448;52.034;5.158;2023-04-24T01:11:03;9.43;;;6.10;;
16669;SDS011;8448;52.034;5.158;2023-04-24T01:13:31;6.63;;;5.27;;
16669;SDS011;8448;52.034;5.158;2023-04-24T01:15:58;7.33;;;4.97;;
16669;SDS011;8448;52.034;5.158;2023-04-24T01:18:26;9.33;;;5.77;;
16669;SDS011;8448;52.034;5.158;2023-04-24T01:20:56;6.13;;;4.87;;
16669;SDS011;8448;52.034;5.158;2023-04-24T01:23:26;5.30;;;4.80;;
16669;SDS011;8448;52.034;5.158;2023-04-24T01:25:54;6.90;;;5.07;;
16669;SDS011;8448;52.034;5.158;2023-04-24T01:28:21;7.60;;;5.10;;
16669;SDS011;8448;52.034;5.158;2023-04-24T01:30:49;7.60;;;5.40;;
16669;SDS011;8448;52.034;5.158;2023-04-24T01:33:16;8.23;;;5.50;;
16669;SDS011;8448;52.034;5.158;2023-04-24T01:35:45;6.93;;;5.30;;
16669;SDS011;8448;52.034;5.158;2023-04-24T01:38:13;6.63;;;5.13;;
16669;SDS011;8448;52.034;5.158;2023-04-24T01:40:41;7.17;;;5.40;;
16669;SDS011;8448;52.034;5.158;2023-04-24T01:43:09;7.07;;;5.70;;
16669;SDS011;8448;52.034;5.158;2023-04-24T01:45:36;7.10;;;5.30;;
16669;SDS011;8448;52.034;5.158;2023-04-24T01:48:04;7.27;;;5.60;;
16669;SDS011;8448;52.034;5.158;2023-04-24T01:50:31;6.63;;;5.40;;
16669;SDS011;8448;52.034;5.158;2023-04-24T01:52:58;7.10;;;5.27;;
16669;SDS011;8448;52.034;5.158;2023-04-24T01:55:26;7.77;;;5.60;;
16669;SDS011;8448;52.034;5.158;2023-04-24T01:57:55;8.30;;;5.93;;
16669;SDS011;8448;52.034;5.158;2023-04-24T02:00:23;8.20;;;5.70;;
16669;SDS011;8448;52.034;5.158;2023-04-24T02:02:52;7.07;;;5.27;;
16669;SDS011;8448;52.034;5.158;2023-04-24T02:05:19;6.87;;;4.50;;
16669;SDS011;8448;52.034;5.158;2023-04-24T02:07:47;5.03;;;4.07;;
16669;SDS011;8448;52.034;5.158;2023-04-24T02:10:14;5.80;;;4.30;;
16669;SDS011;8448;52.034;5.158;2023-04-24T02:12:41;5.33;;;3.90;;
16669;SDS011;8448;52.034;5.158;2023-04-24T02:15:10;5.97;;;3.80;;
16669;SDS011;8448;52.034;5.158;2023-04-24T02:17:38;4.10;;;3.43;;
16669;SDS011;8448;52.034;5.158;2023-04-24T02:20:06;5.47;;;3.53;;
16669;SDS011;8448;52.034;5.158;2023-04-24T02:22:34;5.30;;;3.67;;
16669;SDS011;8448;52.034;5.158;2023-04-24T02:25:01;6.60;;;3.83;;
16669;SDS011;8448;52.034;5.158;2023-04-24T02:27:29;4.63;;;3.77;;
16669;SDS011;8448;52.034;5.158;2023-04-24T02:29:56;5.47;;;4.10;;
16669;SDS011;8448;52.034;5.158;2023-04-24T02:32:25;4.63;;;3.80;;
16669;SDS011;8448;52.034;5.158;2023-04-24T02:34:52;5.10;;;3.70;;
16669;SDS011;8448;52.034;5.158;2023-04-24T02:37:19;6.20;;;4.30;;
16669;SDS011;8448;52.034;5.158;2023-04-24T02:39:47;9.37;;;4.77;;
16669;SDS011;8448;52.034;5.158;2023-04-24T02:42:14;8.00;;;4.80;;
16669;SDS011;8448;52.034;5.158;2023-04-24T02:44:41;8.93;;;6.97;;
16669;SDS011;8448;52.034;5.158;2023-04-24T02:47:08;8.77;;;6.53;;
16669;SDS011;8448;52.034;5.158;2023-04-24T02:49:37;7.30;;;6.50;;
16669;SDS011;8448;52.034;5.158;2023-04-24T02:52:04;8.90;;;6.50;;
16669;SDS011;8448;52.034;5.158;2023-04-24T02:54:32;9.17;;;6.67;;
16669;SDS011;8448;52.034;5.158;2023-04-24T02:56:59;8.50;;;6.57;;
16669;SDS011;8448;52.034;5.158;2023-04-24T02:59:27;10.30;;;7.40;;
16669;SDS011;8448;52.034;5.158;2023-04-24T03:01:54;9.30;;;6.77;;
16669;SDS011;8448;52.034;5.158;2023-04-24T03:04:21;10.97;;;6.00;;
16669;SDS011;8448;52.034;5.158;2023-04-24T03:06:50;9.07;;;7.07;;
16669;SDS011;8448;52.034;5.158;2023-04-24T03:09:19;7.60;;;5.43;;
16669;SDS011;8448;52.034;5.158;2023-04-24T03:11:47;7.27;;;6.27;;
16669;SDS011;8448;52.034;5.158;2023-04-24T03:14:14;6.45;;;4.80;;
16669;SDS011;8448;52.034;5.158;2023-04-24T03:16:42;5.40;;;3.60;;
16669;SDS011;8448;52.034;5.158;2023-04-24T03:19:09;6.83;;;4.00;;
16669;SDS011;8448;52.034;5.158;2023-04-24T03:21:46;5.18;;;4.38;;
16669;SDS011;8448;52.034;5.158;2023-04-24T03:24:15;4.80;;;3.87;;
16669;SDS011;8448;52.034;5.158;2023-04-24T03:26:43;4.60;;;3.77;;
16669;SDS011;8448;52.034;5.158;2023-04-24T03:29:30;5.93;;;4.20;;
16669;SDS011;8448;52.034;5.158;2023-04-24T03:31:58;6.67;;;5.40;;
16669;SDS011;8448;52.034;5.158;2023-04-24T03:34:25;8.23;;;5.70;;
16669;SDS011;8448;52.034;5.158;2023-04-24T03:36:55;9.20;;;6.57;;
16669;SDS011;8448;52.034;5.158;2023-04-24T03:39:24;9.23;;;6.23;;
16669;SDS011;8448;52.034;5.158;2023-04-24T03:41:54;9.50;;;8.00;;
16669;SDS011;8448;52.034;5.158;2023-04-24T03:44:28;10.27;;;7.37;;
16669;SDS011;8448;52.034;5.158;2023-04-24T03:46:57;7.20;;;6.18;;
16669;SDS011;8448;52.034;5.158;2023-04-24T03:49:25;6.17;;;4.80;;
16669;SDS011;8448;52.034;5.158;2023-04-24T03:51:52;5.73;;;4.47;;
16669;SDS011;8448;52.034;5.158;2023-04-24T03:54:24;6.00;;;4.93;;
16669;SDS011;8448;52.034;5.158;2023-04-24T03:56:52;6.60;;;4.50;;
16669;SDS011;8448;52.034;5.158;2023-04-24T03:59:20;5.00;;;3.70;;
16669;SDS011;8448;52.034;5.158;2023-04-24T04:01:58;6.33;;;4.50;;
16669;SDS011;8448;52.034;5.158;2023-04-24T04:04:26;6.50;;;4.33;;
16669;SDS011;8448;52.034;5.158;2023-04-24T04:06:53;6.77;;;4.67;;
16669;SDS011;8448;52.034;5.158;2023-04-24T04:09:21;5.40;;;4.43;;
16669;SDS011;8448;52.034;5.158;2023-04-24T04:11:50;6.63;;;4.70;;
16669;SDS011;8448;52.034;5.158;2023-04-24T04:14:17;6.67;;;4.90;;
16669;SDS011;8448;52.034;5.158;2023-04-24T04:16:46;5.67;;;4.20;;
16669;SDS011;8448;52.034;5.158;2023-04-24T04:19:14;4.87;;;4.20;;
16669;SDS011;8448;52.034;5.158;2023-04-24T04:21:41;5.15;;;3.92;;
16669;SDS011;8448;52.034;5.158;2023-04-24T04:24:41;3.03;;;2.30;;
16669;SDS011;8448;52.034;5.158;2023-04-24T04:27:09;3.38;;;2.00;;
16669;SDS011;8448;52.034;5.158;2023-04-24T04:29:58;2.07;;;1.50;;
16669;SDS011;8448;52.034;5.158;2023-04-24T04:32:27;2.53;;;1.40;;
16669;SDS011;8448;52.034;5.158;2023-04-24T04:34:54;2.07;;;1.40;;
16669;SDS011;8448;52.034;5.158;2023-04-24T04:37:24;2.50;;;1.20;;
16669;SDS011;8448;52.034;5.158;2023-04-24T04:40:21;2.87;;;1.30;;
16669;SDS011;8448;52.034;5.158;2023-04-24T04:42:55;2.33;;;1.40;;
16669;SDS011;8448;52.034;5.158;2023-04-24T04:45:24;2.73;;;1.60;;
16669;SDS011;8448;52.034;5.158;2023-04-24T04:48:11;3.40;;;1.70;;
16669;SDS011;8448;52.034;5.158;2023-04-24T04:50:40;5.90;;;2.37;;
16669;SDS011;8448;52.034;5.158;2023-04-24T04:53:07;5.33;;;2.97;;
16669;SDS011;8448;52.034;5.158;2023-04-24T04:55:38;4.57;;;2.97;;
16669;SDS011;8448;52.034;5.158;2023-04-24T04:58:17;5.80;;;2.87;;
16669;SDS011;8448;52.034;5.158;2023-04-24T05:00:47;4.63;;;3.10;;
16669;SDS011;8448;52.034;5.158;2023-04-24T05:03:21;5.03;;;2.80;;
16669;SDS011;8448;52.034;5.158;2023-04-24T05:05:57;4.37;;;2.67;;
16669;SDS011;8448;52.034;5.158;2023-04-24T05:08:25;3.97;;;2.33;;
16669;SDS011;8448;52.034;5.158;2023-04-24T05:10:54;2.30;;;1.80;;
16669;SDS011;8448;52.034;5.158;2023-04-24T05:13:23;2.47;;;1.17;;
16669;SDS011;8448;52.034;5.158;2023-04-24T05:15:50;2.70;;;1.03;;
16669;SDS011;8448;52.034;5.158;2023-04-24T05:18:19;1.37;;;0.77;;
16669;SDS011;8448;52.034;5.158;2023-04-24T05:20:46;1.20;;;0.80;;
16669;SDS011;8448;52.034;5.158;2023-04-24T05:23:14;2.67;;;1.10;;
16669;SDS011;8448;52.034;5.158;2023-04-24T05:25:43;2.03;;;0.90;;
16669;SDS011;8448;52.034;5.158;2023-04-24T05:28:14;0.90;;;0.80;;
16669;SDS011;8448;52.034;5.158;2023-04-24T05:30:44;1.03;;;0.83;;
16669;SDS011;8448;52.034;5.158;2023-04-24T05:33:12;0.90;;;0.80;;
16669;SDS011;8448;52.034;5.158;2023-04-24T05:35:40;2.87;;;1.10;;
16669;SDS011;8448;52.034;5.158;2023-04-24T05:38:11;2.03;;;1.30;;
16669;SDS011;8448;52.034;5.158;2023-04-24T05:40:39;2.67;;;1.40;;
16669;SDS011;8448;52.034;5.158;2023-04-24T05:43:06;1.53;;;1.20;;
16669;SDS011;8448;52.034;5.158;2023-04-24T05:45:35;1.50;;;1.30;;
16669;SDS011;8448;52.034;5.158;2023-04-24T05:48:03;2.80;;;1.37;;
16669;SDS011;8448;52.034;5.158;2023-04-24T05:50:31;2.10;;;1.60;;
16669;SDS011;8448;52.034;5.158;2023-04-24T05:52:59;1.70;;;1.47;;
16669;SDS011;8448;52.034;5.158;2023-04-24T05:55:31;1.90;;;1.60;;
16669;SDS011;8448;52.034;5.158;2023-04-24T05:57:59;1.77;;;1.57;;
16669;SDS011;8448;52.034;5.158;2023-04-24T06:00:26;2.37;;;1.70;;
16669;SDS011;8448;52.034;5.158;2023-04-24T06:03:02;2.30;;;1.50;;
16669;SDS011;8448;52.034;5.158;2023-04-24T06:05:29;3.20;;;2.00;;
16669;SDS011;8448;52.034;5.158;2023-04-24T06:07:57;4.10;;;2.23;;
16669;SDS011;8448;52.034;5.158;2023-04-24T06:10:28;3.70;;;2.40;;
16669;SDS011;8448;52.034;5.158;2023-04-24T06:12:56;4.43;;;2.30;;
16669;SDS011;8448;52.034;5.158;2023-04-24T06:15:26;6.70;;;2.30;;
16669;SDS011;8448;52.034;5.158;2023-04-24T06:17:58;3.30;;;2.80;;
16669;SDS011;8448;52.034;5.158;2023-04-24T06:20:27;4.93;;;3.80;;
16669;SDS011;8448;52.034;5.158;2023-04-24T06:22:54;10.00;;;6.83;;
16669;SDS011;8448;52.034;5.158;2023-04-24T06:25:22;11.10;;;8.37;;
16669;SDS011;8448;52.034;5.158;2023-04-24T06:27:50;13.33;;;9.23;;
16669;SDS011;8448;52.034;5.158;2023-04-24T06:30:18;16.43;;;10.77;;
16669;SDS011;8448;52.034;5.158;2023-04-24T06:32:45;15.53;;;11.07;;
16669;SDS011;8448;52.034;5.158;2023-04-24T06:35:14;19.53;;;13.00;;
16669;SDS011;8448;52.034;5.158;2023-04-24T06:37:43;19.03;;;13.47;;
16669;SDS011;8448;52.034;5.158;2023-04-24T06:40:10;24.90;;;13.00;;
16669;SDS011;8448;52.034;5.158;2023-04-24T06:42:38;19.93;;;13.13;;
16669;SDS011;8448;52.034;5.158;2023-04-24T06:45:07;20.80;;;12.50;;
16669;SDS011;8448;52.034;5.158;2023-04-24T06:47:35;21.80;;;13.10;;
16669;SDS011;8448;52.034;5.158;2023-04-24T06:50:03;19.70;;;12.50;;
16669;SDS011;8448;52.034;5.158;2023-04-24T06:52:31;24.93;;;13.53;;
16669;SDS011;8448;52.034;5.158;2023-04-24T06:55:01;25.50;;;12.90;;
16669;SDS011;8448;52.034;5.158;2023-04-24T06:57:28;21.30;;;12.37;;
16669;SDS011;8448;52.034;5.158;2023-04-24T06:59:55;23.23;;;12.60;;
16669;SDS011;8448;52.034;5.158;2023-04-24T07:02:23;28.40;;;12.73;;
16669;SDS011;8448;52.034;5.158;2023-04-24T07:04:50;19.90;;;12.10;;
16669;SDS011;8448;52.034;5.158;2023-04-24T07:07:18;23.47;;;11.90;;
16669;SDS011;8448;52.034;5.158;2023-04-24T07:09:46;21.93;;;12.50;;
16669;SDS011;8448;52.034;5.158;2023-04-24T07:12:15;24.00;;;11.67;;
16669;SDS011;8448;52.034;5.158;2023-04-24T07:14:45;22.43;;;10.90;;
16669;SDS011;8448;52.034;5.158;2023-04-24T07:17:13;22.43;;;11.07;;
16669;SDS011;8448;52.034;5.158;2023-04-24T07:19:40;20.73;;;10.63;;
16669;SDS011;8448;52.034;5.158;2023-04-24T07:22:08;24.77;;;10.47;;
16669;SDS011;8448;52.034;5.158;2023-04-24T07:24:36;21.03;;;10.07;;
16669;SDS011;8448;52.034;5.158;2023-04-24T07:27:04;22.23;;;10.40;;
16669;SDS011;8448;52.034;5.158;2023-04-24T07:29:32;22.13;;;9.80;;
16669;SDS011;8448;52.034;5.158;2023-04-24T07:32:00;20.83;;;9.03;;
16669;SDS011;8448;52.034;5.158;2023-04-24T07:34:27;19.97;;;8.83;;
16669;SDS011;8448;52.034;5.158;2023-04-24T07:36:55;25.67;;;8.80;;
16669;SDS011;8448;52.034;5.158;2023-04-24T07:39:22;18.37;;;8.20;;
16669;SDS011;8448;52.034;5.158;2023-04-24T07:41:51;18.70;;;8.33;;
16669;SDS011;8448;52.034;5.158;2023-04-24T07:44:18;22.30;;;8.37;;
16669;SDS011;8448;52.034;5.158;2023-04-24T07:46:47;26.87;;;8.53;;
16669;SDS011;8448;52.034;5.158;2023-04-24T07:49:14;20.80;;;8.30;;
16669;SDS011;8448;52.034;5.158;2023-04-24T07:51:41;21.40;;;8.37;;
16669;SDS011;8448;52.034;5.158;2023-04-24T07:54:09;23.43;;;8.30;;
16669;SDS011;8448;52.034;5.158;2023-04-24T07:56:36;25.13;;;7.50;;
16669;SDS011;8448;52.034;5.158;2023-04-24T07:59:04;32.03;;;7.93;;
16669;SDS011;8448;52.034;5.158;2023-04-24T08:01:31;19.37;;;5.37;;
16669;SDS011;8448;52.034;5.158;2023-04-24T08:04:00;18.70;;;5.80;;
16669;SDS011;8448;52.034;5.158;2023-04-24T08:06:27;22.07;;;6.80;;
16669;SDS011;8448;52.034;5.158;2023-04-24T08:08:55;20.27;;;5.70;;
16669;SDS011;8448;52.034;5.158;2023-04-24T08:11:22;15.00;;;4.80;;
16669;SDS011;8448;52.034;5.158;2023-04-24T08:13:50;24.00;;;5.17;;
16669;SDS011;8448;52.034;5.158;2023-04-24T08:16:17;17.80;;;4.23;;
16669;SDS011;8448;52.034;5.158;2023-04-24T08:18:44;17.27;;;4.17;;
16669;SDS011;8448;52.034;5.158;2023-04-24T08:21:13;15.77;;;3.93;;
16669;SDS011;8448;52.034;5.158;2023-04-24T08:23:42;18.67;;;4.00;;
16669;SDS011;8448;52.034;5.158;2023-04-24T08:26:09;16.50;;;3.53;;
16669;SDS011;8448;52.034;5.158;2023-04-24T08:28:37;17.03;;;3.83;;
16669;SDS011;8448;52.034;5.158;2023-04-24T08:31:04;11.50;;;3.20;;
16669;SDS011;8448;52.034;5.158;2023-04-24T08:33:32;13.33;;;3.10;;
16669;SDS011;8448;52.034;5.158;2023-04-24T08:36:00;12.37;;;3.47;;
16669;SDS011;8448;52.034;5.158;2023-04-24T08:38:29;17.60;;;3.60;;
16669;SDS011;8448;52.034;5.158;2023-04-24T08:40:57;18.07;;;3.50;;
16669;SDS011;8448;52.034;5.158;2023-04-24T08:43:25;14.53;;;3.10;;
16669;SDS011;8448;52.034;5.158;2023-04-24T08:45:54;10.90;;;3.20;;
16669;SDS011;8448;52.034;5.158;2023-04-24T08:48:22;10.27;;;2.80;;
16669;SDS011;8448;52.034;5.158;2023-04-24T08:50:50;10.40;;;3.20;;
16669;SDS011;8448;52.034;5.158;2023-04-24T08:53:18;12.37;;;3.33;;
16669;SDS011;8448;52.034;5.158;2023-04-24T08:55:47;11.73;;;3.03;;
16669;SDS011;8448;52.034;5.158;2023-04-24T08:58:15;11.20;;;3.60;;
16669;SDS011;8448;52.034;5.158;2023-04-24T09:00:43;13.00;;;3.07;;
16669;SDS011;8448;52.034;5.158;2023-04-24T09:03:13;14.50;;;3.37;;
16669;SDS011;8448;52.034;5.158;2023-04-24T09:05:41;11.97;;;3.40;;
16669;SDS011;8448;52.034;5.158;2023-04-24T09:08:10;13.17;;;3.20;;
16669;SDS011;8448;52.034;5.158;2023-04-24T09:10:40;11.07;;;2.63;;
16669;SDS011;8448;52.034;5.158;2023-04-24T09:13:09;11.23;;;2.90;;
16669;SDS011;8448;52.034;5.158;2023-04-24T09:15:36;7.07;;;2.77;;
16669;SDS011;8448;52.034;5.158;2023-04-24T09:18:04;13.73;;;2.77;;
16669;SDS011;8448;52.034;5.158;2023-04-24T09:20:31;9.40;;;3.00;;
16669;SDS011;8448;52.034;5.158;2023-04-24T09:23:01;8.07;;;3.03;;
16669;SDS011;8448;52.034;5.158;2023-04-24T09:25:30;10.17;;;3.00;;
16669;SDS011;8448;52.034;5.158;2023-04-24T09:28:00;9.57;;;3.00;;
16669;SDS011;8448;52.034;5.158;2023-04-24T09:30:29;9.27;;;3.40;;
16669;SDS011;8448;52.034;5.158;2023-04-24T09:33:09;8.13;;;2.73;;
16669;SDS011;8448;52.034;5.158;2023-04-24T09:35:40;6.40;;;2.67;;
16669;SDS011;8448;52.034;5.158;2023-04-24T09:38:08;7.40;;;2.57;;
16669;SDS011;8448;52.034;5.158;2023-04-24T09:40:35;4.93;;;2.30;;
16669;SDS011;8448;52.034;5.158;2023-04-24T09:43:03;5.13;;;2.30;;
16669;SDS011;8448;52.034;5.158;2023-04-24T09:45:36;9.33;;;2.40;;
16669;SDS011;8448;52.034;5.158;2023-04-24T09:48:04;4.80;;;2.20;;
16669;SDS011;8448;52.034;5.158;2023-04-24T09:50:32;6.63;;;2.57;;
16669;SDS011;8448;52.034;5.158;2023-04-24T09:53:02;12.10;;;2.53;;
16669;SDS011;8448;52.034;5.158;2023-04-24T09:55:30;7.90;;;2.10;;
16669;SDS011;8448;52.034;5.158;2023-04-24T09:57:58;10.97;;;2.40;;
16669;SDS011;8448;52.034;5.158;2023-04-24T10:00:30;5.70;;;2.07;;
16669;SDS011;8448;52.034;5.158;2023-04-24T10:03:00;6.70;;;2.13;;
16669;SDS011;8448;52.034;5.158;2023-04-24T10:05:29;7.03;;;2.13;;
16669;SDS011;8448;52.034;5.158;2023-04-24T10:08:01;7.57;;;2.10;;
16669;SDS011;8448;52.034;5.158;2023-04-24T10:10:29;5.10;;;1.47;;
16669;SDS011;8448;52.034;5.158;2023-04-24T10:12:57;10.17;;;2.00;;
16669;SDS011;8448;52.034;5.158;2023-04-24T10:15:26;8.53;;;1.83;;
16669;SDS011;8448;52.034;5.158;2023-04-24T10:17:53;7.27;;;1.50;;
16669;SDS011;8448;52.034;5.158;2023-04-24T10:20:23;4.60;;;1.53;;
16669;SDS011;8448;52.034;5.158;2023-04-24T10:22:52;5.27;;;1.53;;
16669;SDS011;8448;52.034;5.158;2023-04-24T10:25:20;4.77;;;1.40;;
16669;SDS011;8448;52.034;5.158;2023-04-24T10:27:49;9.83;;;1.60;;
16669;SDS011;8448;52.034;5.158;2023-04-24T10:30:17;6.70;;;1.37;;
16669;SDS011;8448;52.034;5.158;2023-04-24T10:32:45;6.43;;;1.50;;
16669;SDS011;8448;52.034;5.158;2023-04-24T10:35:13;3.90;;;1.43;;
16669;SDS011;8448;52.034;5.158;2023-04-24T10:37:44;6.10;;;1.47;;
16669;SDS011;8448;52.034;5.158;2023-04-24T10:40:17;3.50;;;1.27;;
16669;SDS011;8448;52.034;5.158;2023-04-24T10:42:47;4.77;;;1.40;;
16669;SDS011;8448;52.034;5.158;2023-04-24T10:45:17;6.53;;;1.40;;
16669;SDS011;8448;52.034;5.158;2023-04-24T10:50:42;2.70;;;1.10;;
16669;SDS011;8448;52.034;5.158;2023-04-24T10:53:16;3.53;;;1.10;;
16669;SDS011;8448;52.034;5.158;2023-04-24T10:55:46;5.73;;;0.90;;
16669;SDS011;8448;52.034;5.158;2023-04-24T10:58:14;3.93;;;1.00;;
16669;SDS011;8448;52.034;5.158;2023-04-24T11:00:43;3.70;;;0.87;;
16669;SDS011;8448;52.034;5.158;2023-04-24T11:03:23;2.07;;;0.77;;
16669;SDS011;8448;52.034;5.158;2023-04-24T11:05:53;2.47;;;0.90;;
16669;SDS011;8448;52.034;5.158;2023-04-24T11:08:26;2.97;;;1.13;;
16669;SDS011;8448;52.034;5.158;2023-04-24T11:10:56;5.33;;;1.37;;
16669;SDS011;8448;52.034;5.158;2023-04-24T11:13:25;5.90;;;1.17;;
16669;SDS011;8448;52.034;5.158;2023-04-24T11:16:13;4.80;;;1.20;;
16669;SDS011;8448;52.034;5.158;2023-04-24T11:18:50;5.90;;;1.27;;
16669;SDS011;8448;52.034;5.158;2023-04-24T11:21:19;4.27;;;1.00;;
16669;SDS011;8448;52.034;5.158;2023-04-24T11:23:48;2.93;;;1.10;;
16669;SDS011;8448;52.034;5.158;2023-04-24T11:26:17;5.07;;;1.07;;
16669;SDS011;8448;52.034;5.158;2023-04-24T11:28:46;5.53;;;1.30;;
16669;SDS011;8448;52.034;5.158;2023-04-24T11:34:09;4.67;;;1.10;;
16669;SDS011;8448;52.034;5.158;2023-04-24T11:36:38;3.97;;;0.90;;
16669;SDS011;8448;52.034;5.158;2023-04-24T11:39:06;2.97;;;0.97;;
16669;SDS011;8448;52.034;5.158;2023-04-24T11:41:35;2.17;;;0.70;;
16669;SDS011;8448;52.034;5.158;2023-04-24T11:44:03;5.13;;;1.07;;
16669;SDS011;8448;52.034;5.158;2023-04-24T11:46:33;4.10;;;1.00;;
16669;SDS011;8448;52.034;5.158;2023-04-24T11:49:00;2.67;;;0.80;;
16669;SDS011;8448;52.034;5.158;2023-04-24T11:51:27;4.17;;;0.90;;
16669;SDS011;8448;52.034;5.158;2023-04-24T11:53:55;3.90;;;0.93;;
16669;SDS011;8448;52.034;5.158;2023-04-24T11:56:24;4.13;;;1.00;;
16669;SDS011;8448;52.034;5.158;2023-04-24T11:58:52;3.43;;;1.00;;
16669;SDS011;8448;52.034;5.158;2023-04-24T12:01:20;5.33;;;1.33;;
16669;SDS011;8448;52.034;5.158;2023-04-24T12:03:48;4.47;;;1.60;;
16669;SDS011;8448;52.034;5.158;2023-04-24T12:06:16;4.67;;;1.50;;
16669;SDS011;8448;52.034;5.158;2023-04-24T12:08:48;4.57;;;1.07;;
16669;SDS011;8448;52.034;5.158;2023-04-24T12:11:16;3.60;;;1.20;;
16669;SDS011;8448;52.034;5.158;2023-04-24T12:13:47;4.03;;;1.20;;
16669;SDS011;8448;52.034;5.158;2023-04-24T12:16:15;4.20;;;1.30;;
16669;SDS011;8448;52.034;5.158;2023-04-24T12:18:43;4.90;;;1.30;;
16669;SDS011;8448;52.034;5.158;2023-04-24T12:21:14;6.53;;;1.93;;
16669;SDS011;8448;52.034;5.158;2023-04-24T12:23:45;6.77;;;1.87;;
16669;SDS011;8448;52.034;5.158;2023-04-24T12:26:15;4.63;;;1.97;;
16669;SDS011;8448;52.034;5.158;2023-04-24T12:28:46;8.00;;;2.10;;
16669;SDS011;8448;52.034;5.158;2023-04-24T12:31:15;7.23;;;1.60;;
16669;SDS011;8448;52.034;5.158;2023-04-24T12:33:43;6.40;;;1.60;;
16669;SDS011;8448;52.034;5.158;2023-04-24T12:36:10;8.00;;;2.23;;
16669;SDS011;8448;52.034;5.158;2023-04-24T12:38:38;7.20;;;1.60;;
16669;SDS011;8448;52.034;5.158;2023-04-24T12:41:10;4.80;;;1.60;;
16669;SDS011;8448;52.034;5.158;2023-04-24T12:43:40;5.07;;;1.90;;
16669;SDS011;8448;52.034;5.158;2023-04-24T12:46:19;14.00;;;2.07;;
16669;SDS011;8448;52.034;5.158;2023-04-24T12:48:47;8.13;;;1.90;;
16669;SDS011;8448;52.034;5.158;2023-04-24T12:51:14;8.77;;;1.97;;
16669;SDS011;8448;52.034;5.158;2023-04-24T12:53:41;5.77;;;1.53;;
16669;SDS011;8448;52.034;5.158;2023-04-24T12:56:08;9.37;;;2.20;;
16669;SDS011;8448;52.034;5.158;2023-04-24T12:58:36;7.13;;;2.37;;
16669;SDS011;8448;52.034;5.158;2023-04-24T13:01:04;10.80;;;2.67;;
16669;SDS011;8448;52.034;5.158;2023-04-24T13:03:32;7.23;;;2.50;;
16669;SDS011;8448;52.034;5.158;2023-04-24T13:05:59;7.80;;;2.23;;
16669;SDS011;8448;52.034;5.158;2023-04-24T13:08:26;10.57;;;2.20;;
16669;SDS011;8448;52.034;5.158;2023-04-24T13:10:54;8.80;;;2.40;;
16669;SDS011;8448;52.034;5.158;2023-04-24T13:13:21;8.83;;;2.60;;
16669;SDS011;8448;52.034;5.158;2023-04-24T13:15:48;10.77;;;2.80;;
16669;SDS011;8448;52.034;5.158;2023-04-24T13:18:17;10.77;;;2.43;;
16669;SDS011;8448;52.034;5.158;2023-04-24T13:20:44;8.37;;;2.60;;
16669;SDS011;8448;52.034;5.158;2023-04-24T13:23:12;10.37;;;2.77;;
16669;SDS011;8448;52.034;5.158;2023-04-24T13:25:40;10.40;;;2.60;;
16669;SDS011;8448;52.034;5.158;2023-04-24T13:28:07;10.83;;;2.97;;
16669;SDS011;8448;52.034;5.158;2023-04-24T13:30:35;8.73;;;2.37;;
16669;SDS011;8448;52.034;5.158;2023-04-24T13:33:02;9.30;;;2.60;;
16669;SDS011;8448;52.034;5.158;2023-04-24T13:35:31;8.53;;;2.67;;
16669;SDS011;8448;52.034;5.158;2023-04-24T13:37:58;9.47;;;2.63;;
16669;SDS011;8448;52.034;5.158;2023-04-24T13:40:28;9.57;;;2.40;;
16669;SDS011;8448;52.034;5.158;2023-04-24T13:42:56;8.07;;;3.00;;
16669;SDS011;8448;52.034;5.158;2023-04-24T13:45:23;10.97;;;2.57;;
16669;SDS011;8448;52.034;5.158;2023-04-24T13:47:50;12.13;;;2.50;;
16669;SDS011;8448;52.034;5.158;2023-04-24T13:50:18;7.43;;;2.23;;
16669;SDS011;8448;52.034;5.158;2023-04-24T13:52:47;7.97;;;2.20;;
16669;SDS011;8448;52.034;5.158;2023-04-24T13:55:15;10.27;;;2.60;;
16669;SDS011;8448;52.034;5.158;2023-04-24T13:57:42;8.00;;;2.57;;
16669;SDS011;8448;52.034;5.158;2023-04-24T14:00:10;8.90;;;2.70;;
16669;SDS011;8448;52.034;5.158;2023-04-24T14:02:38;5.83;;;2.40;;
16669;SDS011;8448;52.034;5.158;2023-04-24T14:05:06;10.83;;;3.00;;
16669;SDS011;8448;52.034;5.158;2023-04-24T14:07:34;10.60;;;2.60;;
16669;SDS011;8448;52.034;5.158;2023-04-24T14:10:03;10.00;;;3.00;;
16669;SDS011;8448;52.034;5.158;2023-04-24T14:12:31;7.50;;;2.60;;
16669;SDS011;8448;52.034;5.158;2023-04-24T14:14:58;9.87;;;2.87;;
16669;SDS011;8448;52.034;5.158;2023-04-24T14:17:26;8.33;;;2.80;;
16669;SDS011;8448;52.034;5.158;2023-04-24T14:19:53;11.47;;;3.40;;
16669;SDS011;8448;52.034;5.158;2023-04-24T14:22:22;11.17;;;3.17;;
16669;SDS011;8448;52.034;5.158;2023-04-24T14:24:49;7.63;;;2.93;;
16669;SDS011;8448;52.034;5.158;2023-04-24T14:27:18;10.07;;;2.97;;
16669;SDS011;8448;52.034;5.158;2023-04-24T14:29:45;7.10;;;2.77;;
16669;SDS011;8448;52.034;5.158;2023-04-24T14:32:12;6.97;;;2.70;;
16669;SDS011;8448;52.034;5.158;2023-04-24T14:34:40;9.73;;;2.97;;
16669;SDS011;8448;52.034;5.158;2023-04-24T14:37:08;9.23;;;2.90;;
16669;SDS011;8448;52.034;5.158;2023-04-24T14:39:35;11.93;;;3.47;;
16669;SDS011;8448;52.034;5.158;2023-04-24T14:42:02;9.63;;;3.37;;
16669;SDS011;8448;52.034;5.158;2023-04-24T14:44:45;9.50;;;3.33;;
16669;SDS011;8448;52.034;5.158;2023-04-24T14:47:15;10.37;;;3.70;;
16669;SDS011;8448;52.034;5.158;2023-04-24T14:49:46;11.27;;;3.53;;
16669;SDS011;8448;52.034;5.158;2023-04-24T15:00:45;12.80;;;3.70;;
16669;SDS011;8448;52.034;5.158;2023-04-24T15:05:32;9.17;;;3.43;;
16669;SDS011;8448;52.034;5.158;2023-04-24T15:08:04;11.50;;;3.87;;
16669;SDS011;8448;52.034;5.158;2023-04-24T15:10:32;13.67;;;4.00;;
16669;SDS011;8448;52.034;5.158;2023-04-24T15:13:00;10.77;;;3.60;;
16669;SDS011;8448;52.034;5.158;2023-04-24T15:15:27;9.80;;;3.73;;
16669;SDS011;8448;52.034;5.158;2023-04-24T15:17:55;10.23;;;3.80;;
16669;SDS011;8448;52.034;5.158;2023-04-24T15:20:23;8.13;;;3.50;;
16669;SDS011;8448;52.034;5.158;2023-04-24T15:22:51;13.93;;;3.63;;